createdAt,value
2023-05-05T01:27:59.914Z,8.22
2023-05-05T02:52:59.840Z,6.89
2023-05-05T02:56:22.576Z,6.94
2023-05-05T02:59:46.583Z,6.79
2023-05-05T03:03:07.710Z,6.91
2023-05-05T03:06:24.415Z,6.92
2023-05-05T03:09:44.386Z,6.97
2023-05-05T03:12:59.873Z,6.89
2023-05-05T03:16:26.949Z,6.94
2023-05-05T03:22:43.431Z,6.86
2023-05-05T03:31:57.834Z,6.79
2023-05-05T03:35:13.552Z,6.68
2023-05-05T03:47:25.872Z,6.73
2023-05-05T03:53:38.915Z,6.84
2023-05-05T04:35:50.485Z,7.68
2023-05-05T04:39:02.928Z,7.80
2023-05-05T04:42:16.526Z,7.86
2023-05-05T04:45:28.790Z,7.90
2023-05-05T04:48:41.239Z,7.96
2023-05-05T04:51:53.310Z,7.97
2023-05-05T04:55:06.898Z,8.09
2023-05-05T04:58:19.158Z,8.16
2023-05-05T05:01:32.040Z,8.24
2023-05-05T05:04:44.535Z,8.39
2023-05-05T05:07:56.959Z,8.53
2023-05-05T05:11:09.106Z,8.57
2023-05-05T05:14:21.453Z,8.64
2023-05-05T05:17:34.431Z,8.66
2023-05-05T05:20:46.990Z,9.03
2023-05-05T05:23:59.649Z,9.20
2023-05-05T05:27:12.493Z,9.31
2023-05-05T05:30:27.063Z,9.74
2023-05-05T05:33:39.608Z,9.99
2023-05-05T05:36:51.878Z,10.09
2023-05-05T05:40:05.567Z,10.15
2023-05-05T05:43:18.523Z,10.30
2023-05-05T05:46:31.148Z,10.38
2023-05-05T05:49:43.515Z,10.48
2023-05-05T05:52:56.442Z,10.75
2023-05-05T05:56:10.191Z,10.88
2023-05-05T05:59:22.932Z,11.00
2023-05-05T06:02:35.534Z,11.15
2023-05-05T06:05:48.246Z,11.22
2023-05-05T06:09:01.356Z,11.31
2023-05-05T06:12:15.076Z,11.50
2023-05-05T06:15:27.660Z,11.60
2023-05-05T06:18:39.891Z,11.84
2023-05-05T06:21:52.467Z,12.15
2023-05-05T06:25:04.768Z,12.22
2023-05-05T06:28:17.147Z,12.50
2023-05-05T06:31:29.296Z,12.95
2023-05-05T06:34:41.496Z,13.55
2023-05-05T06:37:53.544Z,13.84
2023-05-05T06:41:05.886Z,14.29
2023-05-05T06:44:18.261Z,14.58
2023-05-05T06:47:30.515Z,14.98
2023-05-05T06:50:42.840Z,15.48
2023-05-05T06:53:54.859Z,15.91
2023-05-05T06:57:07.125Z,16.29
2023-05-05T07:00:22.945Z,16.47
2023-05-05T07:03:36.369Z,16.61
2023-05-05T07:06:48.582Z,16.78
2023-05-05T07:10:01.325Z,17.03
2023-05-05T07:13:14.392Z,17.49
2023-05-05T07:16:27.411Z,17.72
2023-05-05T07:19:39.833Z,17.70
2023-05-05T07:22:52.188Z,17.76
2023-05-05T07:26:05.100Z,17.74
2023-05-05T07:29:17.381Z,17.84
2023-05-05T07:32:29.616Z,17.97
2023-05-05T07:35:41.842Z,18.22
2023-05-05T07:38:54.308Z,18.33
2023-05-05T07:42:07.700Z,18.61
2023-05-05T07:45:20.056Z,18.80
2023-05-05T07:48:32.581Z,18.91
2023-05-05T07:51:45.296Z,19.44
2023-05-05T07:54:57.350Z,19.43
2023-05-05T07:58:11.201Z,19.36
2023-05-05T08:01:23.760Z,19.34
2023-05-05T08:04:36.039Z,19.23
2023-05-05T08:07:48.417Z,19.77
2023-05-05T08:11:01.289Z,20.11
2023-05-05T08:14:15.454Z,20.16
2023-05-05T08:17:28.097Z,20.26
2023-05-05T08:20:40.533Z,20.52
2023-05-05T08:23:52.831Z,20.62
2023-05-05T08:27:04.839Z,20.80
2023-05-05T08:30:21.070Z,20.49
2023-05-05T08:33:33.203Z,20.75
2023-05-05T08:36:45.522Z,20.88
2023-05-05T08:39:58.146Z,20.78
2023-05-05T08:43:10.976Z,21.09
2023-05-05T08:46:23.392Z,21.52
2023-05-05T08:49:43.423Z,21.63
2023-05-05T08:53:01.826Z,21.74
2023-05-05T08:56:18.684Z,21.91
2023-05-05T08:59:33.101Z,22.00
2023-05-05T09:02:47.281Z,22.48
2023-05-05T09:05:59.825Z,22.37
2023-05-05T09:09:12.612Z,22.16
2023-05-05T09:12:24.821Z,22.82
2023-05-05T09:15:39.321Z,22.34
2023-05-05T09:18:51.685Z,23.01
2023-05-05T09:22:03.841Z,23.03
2023-05-05T09:25:19.693Z,23.01
2023-05-05T09:28:32.584Z,22.76
2023-05-05T09:31:45.122Z,23.04
2023-05-05T09:35:07.796Z,23.01
2023-05-05T09:38:20.871Z,23.09
2023-05-05T09:41:47.871Z,23.29
2023-05-05T09:45:01.152Z,23.63
2023-05-05T09:48:15.102Z,23.49
2023-05-05T09:51:36.121Z,22.62
2023-05-05T09:54:49.012Z,23.03
2023-05-05T09:58:01.370Z,22.87
2023-05-05T10:01:17.919Z,22.67
2023-05-05T10:04:36.195Z,23.02
2023-05-05T10:07:50.742Z,23.45
2023-05-05T10:11:08.469Z,23.37
2023-05-05T10:14:22.301Z,23.92
2023-05-05T10:17:37.918Z,23.64
2023-05-05T10:20:57.267Z,23.46
2023-05-05T10:24:18.488Z,23.89
2023-05-05T10:27:33.574Z,23.21
2023-05-05T10:30:50.761Z,23.46
2023-05-05T10:34:08.898Z,23.31
2023-05-05T10:37:23.674Z,23.27
2023-05-05T10:40:37.116Z,23.22
2023-05-05T10:43:53.151Z,23.03
2023-05-05T10:47:07.194Z,23.10
2023-05-05T10:50:25.848Z,23.23
2023-05-05T10:53:43.822Z,22.98
2023-05-05T10:56:56.976Z,22.81
2023-05-05T11:00:12.215Z,22.91
2023-05-05T11:03:31.125Z,23.35
2023-05-05T11:06:43.610Z,23.14
2023-05-05T11:10:06.876Z,23.05
2023-05-05T11:13:28.871Z,23.27
2023-05-05T11:16:51.978Z,23.11
2023-05-05T11:20:04.302Z,23.19
2023-05-05T11:23:32.433Z,23.04
2023-05-05T11:26:59.799Z,23.27
2023-05-05T11:30:18.940Z,22.96
2023-05-05T11:33:36.291Z,23.23
2023-05-05T11:36:50.231Z,23.63
2023-05-05T11:40:18.329Z,23.56
2023-05-05T11:43:30.566Z,23.38
2023-05-05T11:46:43.495Z,23.10
2023-05-05T11:49:57.363Z,23.13
2023-05-05T11:53:10.779Z,23.44
2023-05-05T11:56:23.470Z,23.42
2023-05-05T11:59:36.697Z,23.30
2023-05-05T12:02:48.825Z,23.55
2023-05-05T12:06:03.335Z,23.46
2023-05-05T12:09:22.180Z,23.22
2023-05-05T12:12:45.481Z,23.62
2023-05-05T12:15:58.003Z,23.20
2023-05-05T12:19:16.176Z,23.06
2023-05-05T12:22:30.300Z,23.16
2023-05-05T12:25:48.491Z,23.07
2023-05-05T12:29:01.379Z,23.08
2023-05-05T12:32:24.259Z,23.41
2023-05-05T12:35:38.068Z,23.48
2023-05-05T12:38:50.326Z,23.28
2023-05-05T12:42:11.893Z,23.07
2023-05-05T12:45:25.638Z,22.96
2023-05-05T12:48:38.463Z,23.20
2023-05-05T12:52:02.336Z,23.19
2023-05-05T12:55:16.281Z,23.04
2023-05-05T12:58:30.527Z,23.06
2023-05-05T13:01:45.704Z,23.07
2023-05-05T13:05:00.035Z,23.47
2023-05-05T13:08:13.019Z,23.26
2023-05-05T13:11:25.311Z,23.30
2023-05-05T13:14:38.419Z,23.12
2023-05-05T13:17:50.673Z,23.28
2023-05-05T13:21:03.518Z,22.77
2023-05-05T13:27:30.083Z,23.01
2023-05-05T13:30:42.833Z,23.13
2023-05-05T13:33:55.116Z,23.09
2023-05-05T13:37:07.455Z,23.31
2023-05-05T13:40:21.700Z,23.09
2023-05-05T13:43:34.968Z,22.69
2023-05-05T13:46:47.330Z,22.87
2023-05-05T13:49:59.452Z,22.66
2023-05-05T13:53:11.666Z,22.57
2023-05-05T13:56:25.889Z,22.27
2023-05-05T13:59:38.119Z,22.42
2023-05-05T14:02:50.277Z,22.45
2023-05-05T14:06:02.841Z,22.57
2023-05-05T14:09:14.826Z,22.61
2023-05-05T14:12:27.565Z,22.42
2023-05-05T14:15:39.976Z,22.59
2023-05-05T14:18:52.262Z,22.48
2023-05-05T14:22:04.448Z,22.40
2023-05-05T14:25:17.505Z,22.37
2023-05-05T14:28:29.737Z,22.29
2023-05-05T14:31:41.977Z,22.38
2023-05-05T14:34:55.527Z,22.55
2023-05-05T14:38:08.040Z,22.24
2023-05-05T14:41:20.697Z,22.25
2023-05-05T14:44:33.069Z,22.04
2023-05-05T14:47:45.451Z,21.85
2023-05-05T14:50:57.819Z,21.88
2023-05-05T14:54:26.991Z,21.68
2023-05-05T14:57:27.708Z,21.71
2023-05-05T15:00:40.163Z,21.81
2023-05-05T15:03:54.056Z,21.72
2023-05-05T15:07:06.465Z,21.62
2023-05-05T15:10:21.223Z,21.57
2023-05-05T15:13:33.622Z,21.40
2023-05-05T15:16:47.000Z,21.49
2023-05-05T15:19:59.802Z,21.42
2023-05-05T15:23:11.932Z,21.16
2023-05-05T15:26:24.240Z,20.93
2023-05-05T15:29:36.871Z,20.82
2023-05-05T15:32:49.380Z,20.86
2023-05-05T15:36:02.311Z,20.55
2023-05-05T15:39:14.759Z,20.61
2023-05-05T15:42:27.075Z,20.52
2023-05-05T15:45:41.382Z,20.31
2023-05-05T15:48:53.645Z,20.15
2023-05-05T15:52:06.070Z,20.21
2023-05-05T15:55:19.056Z,20.13
2023-05-05T15:58:31.386Z,20.09
2023-05-05T16:01:44.071Z,20.01
2023-05-05T16:04:56.155Z,19.82
2023-05-05T16:08:10.587Z,19.79
2023-05-05T16:11:23.986Z,19.59
2023-05-05T16:14:36.407Z,19.54
2023-05-05T16:17:48.789Z,19.53
2023-05-05T16:21:00.994Z,19.45
2023-05-05T16:24:16.572Z,19.38
2023-05-05T16:27:29.775Z,19.28
2023-05-05T16:30:43.264Z,19.24
2023-05-05T16:33:55.466Z,19.16
2023-05-05T16:37:07.680Z,19.09
2023-05-05T16:40:21.066Z,19.03
2023-05-05T16:43:33.402Z,18.94
2023-05-05T16:46:45.674Z,18.86
2023-05-05T16:49:58.038Z,18.79
2023-05-05T16:53:10.596Z,18.61
2023-05-05T16:56:22.869Z,18.44
2023-05-05T16:59:35.344Z,18.42
2023-05-05T17:02:47.466Z,18.40
2023-05-05T17:06:00.845Z,18.38
2023-05-05T17:09:13.084Z,18.37
2023-05-05T17:12:25.333Z,18.26
2023-05-05T17:15:37.667Z,18.23
2023-05-05T17:18:49.979Z,18.04
2023-05-05T17:22:02.253Z,17.94
2023-05-05T17:25:16.360Z,17.91
2023-05-05T17:28:28.505Z,17.79
2023-05-05T17:31:40.827Z,17.65
2023-05-05T17:34:53.063Z,17.53
2023-05-05T17:41:05.227Z,17.37
2023-05-05T17:44:17.560Z,17.24
2023-05-05T17:47:30.315Z,17.14
2023-05-05T17:50:43.388Z,16.95
2023-05-05T17:53:56.553Z,16.79
2023-05-05T17:57:08.772Z,16.68
2023-05-05T18:00:23.887Z,16.59
2023-05-05T18:03:37.285Z,16.35
2023-05-05T18:06:51.273Z,16.24
2023-05-05T18:16:03.849Z,16.12
2023-05-05T18:28:17.188Z,15.85
2023-05-05T18:31:29.968Z,15.74
2023-05-05T18:34:42.425Z,15.65
2023-05-05T18:37:55.457Z,15.51
2023-05-05T18:47:08.323Z,15.45
2023-05-05T18:50:21.410Z,15.38
2023-05-05T18:53:36.180Z,15.17
2023-05-05T18:59:48.664Z,15.17
2023-05-05T19:09:02.051Z,15.00
2023-05-05T19:12:15.635Z,14.89
2023-05-05T19:18:28.041Z,14.67
2023-05-05T19:24:40.755Z,14.47
2023-05-05T19:27:53.261Z,14.48
2023-05-05T19:31:05.481Z,14.52
2023-05-05T19:37:19.178Z,14.31
2023-05-05T19:40:32.029Z,14.33
2023-05-05T19:43:46.525Z,14.33
2023-05-05T20:08:37.426Z,13.62
2023-05-05T20:17:51.186Z,13.31
2023-05-05T20:45:43.590Z,12.90
2023-05-05T20:48:55.848Z,12.71
2023-05-05T20:52:08.537Z,12.52
2023-05-05T20:55:21.678Z,12.34
2023-05-05T20:58:34.211Z,12.23
2023-05-05T21:01:47.043Z,12.29
2023-05-05T21:05:01.456Z,12.20
2023-05-05T21:08:14.088Z,12.22
2023-05-05T21:11:26.352Z,12.14
2023-05-05T21:14:38.558Z,12.07
2023-05-05T21:17:50.833Z,12.05
2023-05-05T21:21:03.316Z,11.88
2023-05-05T21:24:17.276Z,11.81
2023-05-05T21:27:29.690Z,11.71
2023-05-05T21:30:42.368Z,11.67
2023-05-05T21:33:54.704Z,11.65
2023-05-05T21:37:07.425Z,11.64
2023-05-05T21:40:20.927Z,11.62
2023-05-05T21:43:33.800Z,11.72
2023-05-05T21:46:46.224Z,11.83
2023-05-05T21:49:58.650Z,11.82
2023-05-05T21:53:11.220Z,11.80
2023-05-05T21:56:23.315Z,11.77
2023-05-05T21:59:36.260Z,11.84
2023-05-05T22:02:48.768Z,11.82
2023-05-05T22:06:01.074Z,11.79
2023-05-05T22:09:13.177Z,11.77
2023-05-05T22:12:25.294Z,11.74
2023-05-05T22:15:46.008Z,11.72
2023-05-05T22:18:53.779Z,11.76
2023-05-05T22:22:07.230Z,11.70
2023-05-05T22:25:19.549Z,11.66
2023-05-05T22:28:31.957Z,11.46
2023-05-05T22:31:44.244Z,11.49
2023-05-05T22:34:56.518Z,11.49
2023-05-05T22:38:08.885Z,11.43
2023-05-05T22:41:21.479Z,11.42
2023-05-05T22:44:35.728Z,11.39
2023-05-05T22:47:48.375Z,11.35
2023-05-05T22:51:00.689Z,11.21
2023-05-05T22:54:13.277Z,11.17
2023-05-05T22:57:25.504Z,11.14
2023-05-05T23:00:38.303Z,11.16
2023-05-05T23:03:50.710Z,11.07
2023-05-05T23:07:03.023Z,11.11
2023-05-05T23:10:17.094Z,10.88
2023-05-05T23:13:29.177Z,10.94
2023-05-05T23:16:41.513Z,10.85
2023-05-05T23:19:55.031Z,10.78
2023-05-05T23:23:07.244Z,10.74
2023-05-05T23:26:21.097Z,10.73
2023-05-05T23:29:33.530Z,10.68
2023-05-05T23:32:46.296Z,10.61
2023-05-05T23:35:58.633Z,10.50
2023-05-05T23:39:11.620Z,10.45
2023-05-05T23:42:23.884Z,10.39
2023-05-05T23:45:36.061Z,10.36
2023-05-05T23:48:48.164Z,10.31
2023-05-05T23:52:00.892Z,10.32
2023-05-05T23:55:15.343Z,10.29
2023-05-05T23:58:27.482Z,10.32
